sensor_id;sensor_type;location;lat;lon;timestamp;pressure;altitude;pressure_sealevel;temperature;humidity
76358;BME280;65185;21.060;105.826;2022-12-05T00:03:44;102338.00;;;16.91;100.00
76358;BME280;65185;21.060;105.826;2022-12-05T00:06:11;102349.44;;;16.93;100.00
76358;BME280;65185;21.060;105.826;2022-12-05T00:08:38;102351.06;;;16.94;100.00
76358;BME280;65185;21.060;105.826;2022-12-05T00:11:14;102344.88;;;16.98;100.00
76358;BME280;65185;21.060;105.826;2022-12-05T00:13:43;102349.22;;;16.99;100.00
76358;BME280;65185;21.060;105.826;2022-12-05T00:16:12;102358.72;;;17.02;100.00
76358;BME280;65185;21.060;105.826;2022-12-05T00:18:40;102368.75;;;17.01;100.00
76358;BME280;65185;21.060;105.826;2022-12-05T00:21:12;102367.69;;;17.02;100.00
76358;BME280;65185;21.060;105.826;2022-12-05T00:23:39;102370.41;;;17.02;100.00
76358;BME280;65185;21.060;105.826;2022-12-05T00:26:06;102385.66;;;17.09;100.00
76358;BME280;65185;21.060;105.826;2022-12-05T00:28:34;102387.00;;;17.11;100.00
76358;BME280;65185;21.060;105.826;2022-12-05T00:31:06;102387.34;;;17.15;100.00
76358;BME280;65185;21.060;105.826;2022-12-05T00:33:34;102379.72;;;17.17;100.00
76358;BME280;65185;21.060;105.826;2022-12-05T00:36:03;102383.78;;;17.14;100.00
76358;BME280;65185;21.060;105.826;2022-12-05T00:38:30;102393.00;;;17.13;100.00
76358;BME280;65185;21.060;105.826;2022-12-05T00:41:02;102404.69;;;17.14;100.00
76358;BME280;65185;21.060;105.826;2022-12-05T00:43:30;102401.72;;;17.15;100.00
76358;BME280;65185;21.060;105.826;2022-12-05T00:46:03;102413.63;;;17.09;100.00
76358;BME280;65185;21.060;105.826;2022-12-05T00:48:30;102414.69;;;17.08;100.00
76358;BME280;65185;21.060;105.826;2022-12-05T00:51:09;102422.59;;;17.10;100.00
76358;BME280;65185;21.060;105.826;2022-12-05T00:53:37;102429.09;;;17.09;100.00
76358;BME280;65185;21.060;105.826;2022-12-05T00:56:07;102441.25;;;17.06;100.00
76358;BME280;65185;21.060;105.826;2022-12-05T00:58:34;102443.22;;;17.11;100.00
76358;BME280;65185;21.060;105.826;2022-12-05T01:01:15;102448.13;;;17.14;100.00
76358;BME280;65185;21.060;105.826;2022-12-05T01:03:44;102453.84;;;17.17;100.00
76358;BME280;65185;21.060;105.826;2022-12-05T01:06:13;102451.13;;;17.17;100.00
76358;BME280;65185;21.060;105.826;2022-12-05T01:08:41;102447.94;;;17.20;100.00
76358;BME280;65185;21.060;105.826;2022-12-05T01:11:09;102455.00;;;17.21;100.00
76358;BME280;65185;21.060;105.826;2022-12-05T01:13:36;102451.50;;;17.26;100.00
76358;BME280;65185;21.060;105.826;2022-12-05T01:16:04;102454.75;;;17.28;100.00
76358;BME280;65185;21.060;105.826;2022-12-05T01:18:31;102465.38;;;17.29;100.00
76358;BME280;65185;21.060;105.826;2022-12-05T01:20:57;102470.50;;;17.26;100.00
76358;BME280;65185;21.060;105.826;2022-12-05T01:23:24;102472.16;;;17.27;100.00
76358;BME280;65185;21.060;105.826;2022-12-05T01:25:51;102466.97;;;17.25;100.00
76358;BME280;65185;21.060;105.826;2022-12-05T01:28:19;102468.91;;;17.30;100.00
76358;BME280;65185;21.060;105.826;2022-12-05T01:30:48;102469.78;;;17.35;100.00
76358;BME280;65185;21.060;105.826;2022-12-05T01:33:15;102475.44;;;17.34;100.00
76358;BME280;65185;21.060;105.826;2022-12-05T01:35:43;102471.47;;;17.41;100.00
76358;BME280;65185;21.060;105.826;2022-12-05T01:38:11;102479.81;;;17.35;100.00
76358;BME280;65185;21.060;105.826;2022-12-05T01:40:39;102467.06;;;17.35;100.00
76358;BME280;65185;21.060;105.826;2022-12-05T01:43:17;102472.00;;;17.38;100.00
76358;BME280;65185;21.060;105.826;2022-12-05T01:45:45;102476.59;;;17.38;100.00
76358;BME280;65185;21.060;105.826;2022-12-05T01:48:30;102484.50;;;17.44;100.00
76358;BME280;65185;21.060;105.826;2022-12-05T01:51:00;102489.69;;;17.46;100.00
76358;BME280;65185;21.060;105.826;2022-12-05T01:53:28;102489.69;;;17.46;100.00
76358;BME280;65185;21.060;105.826;2022-12-05T01:55:56;102491.75;;;17.61;100.00
76358;BME280;65185;21.060;105.826;2022-12-05T01:58:27;102497.72;;;17.63;100.00
76358;BME280;65185;21.060;105.826;2022-12-05T02:00:56;102489.50;;;17.58;100.00
76358;BME280;65185;21.060;105.826;2022-12-05T02:03:23;102487.13;;;17.61;100.00
76358;BME280;65185;21.060;105.826;2022-12-05T02:05:52;102490.03;;;17.55;100.00
76358;BME280;65185;21.060;105.826;2022-12-05T02:08:19;102495.44;;;17.50;100.00
76358;BME280;65185;21.060;105.826;2022-12-05T02:10:52;102491.63;;;17.51;100.00
76358;BME280;65185;21.060;105.826;2022-12-05T02:30:39;102485.31;;;17.72;99.24
76358;BME280;65185;21.060;105.826;2022-12-05T02:41:13;102463.09;;;17.80;92.55
76358;BME280;65185;21.060;105.826;2022-12-05T02:44:03;102466.06;;;17.78;91.78
76358;BME280;65185;21.060;105.826;2022-12-05T02:46:33;102456.81;;;17.79;92.79
76358;BME280;65185;21.060;105.826;2022-12-05T02:49:07;102459.53;;;17.79;93.82
76358;BME280;65185;21.060;105.826;2022-12-05T02:51:40;102469.63;;;17.84;94.61
76358;BME280;65185;21.060;105.826;2022-12-05T02:54:15;102469.63;;;17.84;93.43
76358;BME280;65185;21.060;105.826;2022-12-05T02:56:46;102464.19;;;17.84;93.70
76358;BME280;65185;21.060;105.826;2022-12-05T02:59:15;102461.22;;;17.85;93.76
76358;BME280;65185;21.060;105.826;2022-12-05T03:01:43;102464.22;;;17.89;92.30
76358;BME280;65185;21.060;105.826;2022-12-05T03:04:11;102459.34;;;17.91;92.69
76358;BME280;65185;21.060;105.826;2022-12-05T03:06:50;102457.19;;;17.93;92.12
76358;BME280;65185;21.060;105.826;2022-12-05T03:09:19;102455.56;;;17.92;92.87
76358;BME280;65185;21.060;105.826;2022-12-05T03:11:58;102455.84;;;17.96;94.47
76358;BME280;65185;21.060;105.826;2022-12-05T03:14:29;102450.72;;;17.99;94.19
76358;BME280;65185;21.060;105.826;2022-12-05T03:17:02;102446.88;;;17.95;92.32
76358;BME280;65185;21.060;105.826;2022-12-05T03:19:48;102447.44;;;17.97;93.47
76358;BME280;65185;21.060;105.826;2022-12-05T03:22:31;102451.25;;;18.01;94.29
76358;BME280;65185;21.060;105.826;2022-12-05T03:25:00;102447.19;;;18.04;94.08
76358;BME280;65185;21.060;105.826;2022-12-05T03:27:45;102442.59;;;18.04;93.60
76358;BME280;65185;21.060;105.826;2022-12-05T03:30:20;102430.09;;;18.08;94.43
76358;BME280;65185;21.060;105.826;2022-12-05T03:38:15;102433.38;;;18.10;93.04
76358;BME280;65185;21.060;105.826;2022-12-05T03:43:38;102419.22;;;18.13;93.79
76358;BME280;65185;21.060;105.826;2022-12-05T03:46:22;102412.47;;;18.16;93.45
76358;BME280;65185;21.060;105.826;2022-12-05T03:48:56;102417.34;;;18.19;92.14
76358;BME280;65185;21.060;105.826;2022-12-05T03:51:36;102405.66;;;18.23;92.13
76358;BME280;65185;21.060;105.826;2022-12-05T03:54:22;102404.59;;;18.24;91.76
76358;BME280;65185;21.060;105.826;2022-12-05T03:56:55;102405.97;;;18.27;91.92
76358;BME280;65185;21.060;105.826;2022-12-05T03:59:33;102398.09;;;18.31;91.46
76358;BME280;65185;21.060;105.826;2022-12-05T04:02:06;102395.38;;;18.31;91.73
76358;BME280;65185;21.060;105.826;2022-12-05T04:05:03;102382.84;;;18.29;93.51
76358;BME280;65185;21.060;105.826;2022-12-05T04:07:34;102385.06;;;18.33;93.56
76358;BME280;65185;21.060;105.826;2022-12-05T04:10:06;102379.88;;;18.31;93.17
76358;BME280;65185;21.060;105.826;2022-12-05T04:12:36;102369.25;;;18.35;92.80
76358;BME280;65185;21.060;105.826;2022-12-05T04:15:09;102353.25;;;18.38;91.88
76358;BME280;65185;21.060;105.826;2022-12-05T04:17:58;102349.72;;;18.38;92.92
76358;BME280;65185;21.060;105.826;2022-12-05T04:20:30;102343.44;;;18.42;91.25
76358;BME280;65185;21.060;105.826;2022-12-05T04:23:18;102342.09;;;18.45;91.87
76358;BME280;65185;21.060;105.826;2022-12-05T04:26:14;102345.38;;;18.47;91.84
76358;BME280;65185;21.060;105.826;2022-12-05T04:29:00;102338.28;;;18.46;90.99
76358;BME280;65185;21.060;105.826;2022-12-05T04:31:41;102319.78;;;18.48;89.70
76358;BME280;65185;21.060;105.826;2022-12-05T04:34:11;102319.78;;;18.48;91.64
76358;BME280;65185;21.060;105.826;2022-12-05T04:37:08;102316.53;;;18.51;90.53
76358;BME280;65185;21.060;105.826;2022-12-05T04:39:48;102311.41;;;18.54;91.27
76358;BME280;65185;21.060;105.826;2022-12-05T04:42:25;102299.16;;;18.57;91.23
76358;BME280;65185;21.060;105.826;2022-12-05T04:45:02;102301.06;;;18.56;90.87
76358;BME280;65185;21.060;105.826;2022-12-05T04:47:34;102292.88;;;18.56;90.87
76358;BME280;65185;21.060;105.826;2022-12-05T04:50:06;102292.88;;;18.56;91.24
76358;BME280;65185;21.060;105.826;2022-12-05T04:52:35;102281.75;;;18.58;92.04
76358;BME280;65185;21.060;105.826;2022-12-05T04:55:17;102276.84;;;18.60;91.90
76358;BME280;65185;21.060;105.826;2022-12-05T05:00:38;102266.50;;;18.67;89.95
76358;BME280;65185;21.060;105.826;2022-12-05T05:03:18;102263.78;;;18.67;89.98
76358;BME280;65185;21.060;105.826;2022-12-05T05:05:49;102258.06;;;18.68;90.14
76358;BME280;65185;21.060;105.826;2022-12-05T05:08:23;102253.44;;;18.69;90.87
76358;BME280;65185;21.060;105.826;2022-12-05T05:11:14;102249.06;;;18.73;88.09
76358;BME280;65185;21.060;105.826;2022-12-05T05:13:41;102239.00;;;18.74;89.24
76358;BME280;65185;21.060;105.826;2022-12-05T05:16:13;102229.75;;;18.75;90.16
76358;BME280;65185;21.060;105.826;2022-12-05T05:18:44;102221.84;;;18.78;91.06
76358;BME280;65185;21.060;105.826;2022-12-05T05:21:29;102225.69;;;18.82;92.33
76358;BME280;65185;21.060;105.826;2022-12-05T05:23:56;102214.22;;;18.85;91.17
76358;BME280;65185;21.060;105.826;2022-12-05T05:26:24;102218.03;;;18.84;90.81
76358;BME280;65185;21.060;105.826;2022-12-05T05:28:52;102198.72;;;18.86;91.27
76358;BME280;65185;21.060;105.826;2022-12-05T05:31:20;102202.25;;;18.86;91.58
76358;BME280;65185;21.060;105.826;2022-12-05T05:33:51;102195.47;;;18.89;91.80
76358;BME280;65185;21.060;105.826;2022-12-05T05:36:19;102181.03;;;18.88;90.43
76358;BME280;65185;21.060;105.826;2022-12-05T05:38:48;102177.75;;;18.91;90.85
76358;BME280;65185;21.060;105.826;2022-12-05T05:41:33;102163.03;;;18.92;90.37
76358;BME280;65185;21.060;105.826;2022-12-05T05:44:00;102154.31;;;18.95;90.02
76358;BME280;65185;21.060;105.826;2022-12-05T05:46:30;102151.56;;;19.00;90.16
76358;BME280;65185;21.060;105.826;2022-12-05T05:48:57;102150.47;;;19.06;90.10
76358;BME280;65185;21.060;105.826;2022-12-05T05:51:25;102140.97;;;19.04;89.52
76358;BME280;65185;21.060;105.826;2022-12-05T05:53:54;102145.00;;;19.06;91.06
76358;BME280;65185;21.060;105.826;2022-12-05T05:56:21;102131.94;;;19.08;89.85
76358;BME280;65185;21.060;105.826;2022-12-05T05:58:55;102128.97;;;19.10;90.57
76358;BME280;65185;21.060;105.826;2022-12-05T06:01:22;102119.97;;;19.09;89.06
76358;BME280;65185;21.060;105.826;2022-12-05T06:03:49;102110.44;;;19.07;90.08
76358;BME280;65185;21.060;105.826;2022-12-05T06:06:17;102103.63;;;19.09;90.16
76358;BME280;65185;21.060;105.826;2022-12-05T06:08:45;102102.78;;;19.14;90.88
76358;BME280;65185;21.060;105.826;2022-12-05T06:11:31;102092.72;;;19.15;91.00
76358;BME280;65185;21.060;105.826;2022-12-05T06:13:59;102086.19;;;19.16;88.09
76358;BME280;65185;21.060;105.826;2022-12-05T06:16:28;102079.31;;;19.23;89.52
76358;BME280;65185;21.060;105.826;2022-12-05T06:18:55;102079.03;;;19.25;88.79
76358;BME280;65185;21.060;105.826;2022-12-05T06:21:22;102063.25;;;19.27;90.49
76358;BME280;65185;21.060;105.826;2022-12-05T06:23:49;102064.88;;;19.28;91.56
76358;BME280;65185;21.060;105.826;2022-12-05T06:26:18;102055.56;;;19.29;90.57
76358;BME280;65185;21.060;105.826;2022-12-05T06:28:46;102051.22;;;19.33;90.69
76358;BME280;65185;21.060;105.826;2022-12-05T06:31:23;102056.63;;;19.38;90.71
76358;BME280;65185;21.060;105.826;2022-12-05T06:33:53;102043.53;;;19.40;90.11
76358;BME280;65185;21.060;105.826;2022-12-05T06:36:21;102044.34;;;19.40;89.96
76358;BME280;65185;21.060;105.826;2022-12-05T06:38:48;102040.78;;;19.40;88.68
76358;BME280;65185;21.060;105.826;2022-12-05T06:41:25;102039.16;;;19.44;88.81
76358;BME280;65185;21.060;105.826;2022-12-05T06:43:58;102030.44;;;19.47;87.41
76358;BME280;65185;21.060;105.826;2022-12-05T06:46:25;102031.44;;;19.56;85.79
76358;BME280;65185;21.060;105.826;2022-12-05T06:48:54;102015.69;;;19.53;86.59
76358;BME280;65185;21.060;105.826;2022-12-05T06:51:21;102010.81;;;19.50;87.56
76358;BME280;65185;21.060;105.826;2022-12-05T06:53:51;102002.34;;;19.51;87.31
76358;BME280;65185;21.060;105.826;2022-12-05T06:56:19;101998.78;;;19.51;87.34
76358;BME280;65185;21.060;105.826;2022-12-05T06:58:48;101994.97;;;19.52;88.10
76358;BME280;65185;21.060;105.826;2022-12-05T07:01:19;101990.56;;;19.56;86.50
76358;BME280;65185;21.060;105.826;2022-12-05T07:04:17;101982.69;;;19.55;86.35
76358;BME280;65185;21.060;105.826;2022-12-05T07:06:51;101986.53;;;19.54;88.13
76358;BME280;65185;21.060;105.826;2022-12-05T07:09:22;101981.06;;;19.54;87.64
76358;BME280;65185;21.060;105.826;2022-12-05T07:12:09;101972.34;;;19.51;88.00
76358;BME280;65185;21.060;105.826;2022-12-05T07:14:42;101982.75;;;19.49;88.31
76358;BME280;65185;21.060;105.826;2022-12-05T07:17:09;101977.56;;;19.48;87.78
76358;BME280;65185;21.060;105.826;2022-12-05T07:19:36;101973.22;;;19.47;88.14
76358;BME280;65185;21.060;105.826;2022-12-05T07:22:04;101975.94;;;19.47;89.15
76358;BME280;65185;21.060;105.826;2022-12-05T07:24:31;101972.69;;;19.45;90.07
76358;BME280;65185;21.060;105.826;2022-12-05T07:26:57;101975.69;;;19.43;88.91
76358;BME280;65185;21.060;105.826;2022-12-05T07:29:24;101972.19;;;19.38;87.71
76358;BME280;65185;21.060;105.826;2022-12-05T07:31:53;101967.28;;;19.35;89.27
76358;BME280;65185;21.060;105.826;2022-12-05T07:34:20;101959.16;;;19.30;89.63
76358;BME280;65185;21.060;105.826;2022-12-05T07:36:47;101961.38;;;19.28;89.54
76358;BME280;65185;21.060;105.826;2022-12-05T07:39:13;101956.47;;;19.25;90.10
76358;BME280;65185;21.060;105.826;2022-12-05T07:41:41;101952.13;;;19.24;88.51
76358;BME280;65185;21.060;105.826;2022-12-05T07:44:11;101947.53;;;19.19;89.37
76358;BME280;65185;21.060;105.826;2022-12-05T07:46:38;101950.25;;;19.19;90.26
76358;BME280;65185;21.060;105.826;2022-12-05T07:49:06;101938.81;;;19.17;90.54
76358;BME280;65185;21.060;105.826;2022-12-05T07:51:33;101947.28;;;19.16;90.59
76358;BME280;65185;21.060;105.826;2022-12-05T07:54:01;101944.84;;;19.14;90.06
76358;BME280;65185;21.060;105.826;2022-12-05T07:56:28;101939.16;;;19.10;89.14
76358;BME280;65185;21.060;105.826;2022-12-05T07:58:55;101942.44;;;19.07;90.03
76358;BME280;65185;21.060;105.826;2022-12-05T08:01:24;101934.00;;;19.09;91.31
76358;BME280;65185;21.060;105.826;2022-12-05T08:03:53;101939.72;;;19.07;92.10
76358;BME280;65185;21.060;105.826;2022-12-05T08:06:23;101930.44;;;19.08;91.83
76358;BME280;65185;21.060;105.826;2022-12-05T08:08:51;101933.44;;;19.07;91.66
76358;BME280;65185;21.060;105.826;2022-12-05T08:11:20;101936.16;;;19.07;91.84
76358;BME280;65185;21.060;105.826;2022-12-05T08:13:48;101934.84;;;19.04;91.72
76358;BME280;65185;21.060;105.826;2022-12-05T08:16:17;101932.63;;;19.06;92.09
76358;BME280;65185;21.060;105.826;2022-12-05T08:18:44;101928.00;;;19.07;92.13
76358;BME280;65185;21.060;105.826;2022-12-05T08:21:17;101924.47;;;19.06;92.78
76358;BME280;65185;21.060;105.826;2022-12-05T08:23:45;101926.38;;;19.06;92.53
76358;BME280;65185;21.060;105.826;2022-12-05T08:26:18;101926.38;;;19.06;93.77
76358;BME280;65185;21.060;105.826;2022-12-05T08:28:49;101927.19;;;19.06;95.00
76358;BME280;65185;21.060;105.826;2022-12-05T08:31:18;101925.59;;;19.05;93.77
76358;BME280;65185;21.060;105.826;2022-12-05T08:33:45;101928.31;;;19.05;94.20
76358;BME280;65185;21.060;105.826;2022-12-05T08:36:14;101924.78;;;19.05;93.01
76358;BME280;65185;21.060;105.826;2022-12-05T08:38:42;101917.41;;;19.05;94.61
76358;BME280;65185;21.060;105.826;2022-12-05T08:41:16;101921.22;;;19.04;93.95
76358;BME280;65185;21.060;105.826;2022-12-05T08:43:43;101917.41;;;19.05;93.88
76358;BME280;65185;21.060;105.826;2022-12-05T08:46:11;101917.09;;;19.07;94.43
76358;BME280;65185;21.060;105.826;2022-12-05T08:48:38;101921.75;;;19.06;94.53
76358;BME280;65185;21.060;105.826;2022-12-05T08:51:07;101915.47;;;19.06;93.64
76358;BME280;65185;21.060;105.826;2022-12-05T08:53:34;101920.13;;;19.05;93.82
76358;BME280;65185;21.060;105.826;2022-12-05T08:56:02;101911.97;;;19.05;94.44
76358;BME280;65185;21.060;105.826;2022-12-05T08:58:30;101923.94;;;19.04;93.01
76358;BME280;65185;21.060;105.826;2022-12-05T09:01:24;101921.50;;;19.03;93.92
76358;BME280;65185;21.060;105.826;2022-12-05T09:03:56;101917.69;;;19.04;95.08
76358;BME280;65185;21.060;105.826;2022-12-05T09:06:24;101917.69;;;19.04;94.43
76358;BME280;65185;21.060;105.826;2022-12-05T09:08:56;101913.06;;;19.04;95.33
76358;BME280;65185;21.060;105.826;2022-12-05T09:11:29;101919.59;;;19.03;95.70
76358;BME280;65185;21.060;105.826;2022-12-05T09:13:58;101916.88;;;19.03;96.15
76358;BME280;65185;21.060;105.826;2022-12-05T09:16:28;101919.88;;;19.02;96.32
76358;BME280;65185;21.060;105.826;2022-12-05T09:18:56;101916.34;;;19.01;95.79
76358;BME280;65185;21.060;105.826;2022-12-05T09:21:26;101915.50;;;19.01;96.10
76358;BME280;65185;21.060;105.826;2022-12-05T09:23:53;101920.16;;;19.00;95.44
76358;BME280;65185;21.060;105.826;2022-12-05T09:26:22;101920.72;;;18.97;95.56
76358;BME280;65185;21.060;105.826;2022-12-05T09:28:50;101924.25;;;18.98;96.05
76358;BME280;65185;21.060;105.826;2022-12-05T09:31:21;101924.53;;;18.96;95.73
76358;BME280;65185;21.060;105.826;2022-12-05T09:33:49;101928.91;;;18.97;96.69
76358;BME280;65185;21.060;105.826;2022-12-05T09:38:48;101932.47;;;18.93;97.83
76358;BME280;65185;21.060;105.826;2022-12-05T09:44:40;101925.16;;;18.88;97.25
76358;BME280;65185;21.060;105.826;2022-12-05T09:56:10;101928.75;;;18.74;100.00
76358;BME280;65185;21.060;105.826;2022-12-05T09:58:48;101930.16;;;18.71;100.00
76358;BME280;65185;21.060;105.826;2022-12-05T10:09:59;101942.66;;;18.67;100.00
76358;BME280;65185;21.060;105.826;2022-12-05T10:15:37;101940.78;;;18.62;100.00
76358;BME280;65185;21.060;105.826;2022-12-05T10:21:04;101937.00;;;18.63;100.00
76358;BME280;65185;21.060;105.826;2022-12-05T10:26:19;101945.16;;;18.63;100.00
76358;BME280;65185;21.060;105.826;2022-12-05T10:31:28;101941.63;;;18.63;100.00
76358;BME280;65185;21.060;105.826;2022-12-05T10:34:38;101955.22;;;18.63;100.00
76358;BME280;65185;21.060;105.826;2022-12-05T10:37:18;101957.44;;;18.61;100.00
76358;BME280;65185;21.060;105.826;2022-12-05T10:39:47;101962.31;;;18.59;100.00
76358;BME280;65185;21.060;105.826;2022-12-05T10:42:30;101966.69;;;18.60;100.00
76358;BME280;65185;21.060;105.826;2022-12-05T10:45:02;101960.16;;;18.61;100.00
76358;BME280;65185;21.060;105.826;2022-12-05T10:47:29;101971.53;;;18.63;100.00
76358;BME280;65185;21.060;105.826;2022-12-05T10:50:04;101959.84;;;18.62;100.00
76358;BME280;65185;21.060;105.826;2022-12-05T10:52:31;101961.47;;;18.63;100.00
76358;BME280;65185;21.060;105.826;2022-12-05T10:55:05;101961.22;;;18.65;100.00
76358;BME280;65185;21.060;105.826;2022-12-05T10:57:33;101974.00;;;18.64;100.00
76358;BME280;65185;21.060;105.826;2022-12-05T11:00:11;101967.47;;;18.65;100.00
76358;BME280;65185;21.060;105.826;2022-12-05T11:02:41;101983.50;;;18.67;100.00
76358;BME280;65185;21.060;105.826;2022-12-05T11:05:08;101975.34;;;18.62;100.00
76358;BME280;65185;21.060;105.826;2022-12-05T11:07:45;101980.28;;;18.60;100.00
76358;BME280;65185;21.060;105.826;2022-12-05T11:10:26;101977.81;;;18.58;100.00
76358;BME280;65185;21.060;105.826;2022-12-05T11:12:57;101987.06;;;18.57;100.00
76358;BME280;65185;21.060;105.826;2022-12-05T11:15:27;101982.72;;;18.56;100.00
76358;BME280;65185;21.060;105.826;2022-12-05T11:17:57;101991.69;;;18.57;100.00
76358;BME280;65185;21.060;105.826;2022-12-05T11:22:54;101994.97;;;18.59;100.00
76358;BME280;65185;21.060;105.826;2022-12-05T11:25:31;102001.22;;;18.59;100.00
76358;BME280;65185;21.060;105.826;2022-12-05T11:28:23;102011.84;;;18.61;100.00
76358;BME280;65185;21.060;105.826;2022-12-05T11:31:00;102005.59;;;18.60;100.00
76358;BME280;65185;21.060;105.826;2022-12-05T11:33:30;102014.25;;;18.62;100.00
76358;BME280;65185;21.060;105.826;2022-12-05T11:36:18;102011.53;;;18.62;100.00
76358;BME280;65185;21.060;105.826;2022-12-05T11:38:47;102012.34;;;18.63;100.00
76358;BME280;65185;21.060;105.826;2022-12-05T12:01:06;102039.56;;;18.53;100.00
76358;BME280;65185;21.060;105.826;2022-12-05T12:03:50;102043.66;;;18.50;100.00
76358;BME280;65185;21.060;105.826;2022-12-05T12:12:09;102044.78;;;18.44;100.00
76358;BME280;65185;21.060;105.826;2022-12-05T12:17:48;102051.56;;;18.42;100.00
76358;BME280;65185;21.060;105.826;2022-12-05T12:31:28;102061.09;;;18.34;100.00
76358;BME280;65185;21.060;105.826;2022-12-05T12:47:46;102082.34;;;18.32;100.00
76358;BME280;65185;21.060;105.826;2022-12-05T12:50:23;102074.44;;;18.31;100.00
76358;BME280;65185;21.060;105.826;2022-12-05T12:58:50;102089.69;;;18.26;100.00
76358;BME280;65185;21.060;105.826;2022-12-05T13:09:39;102105.47;;;18.24;100.00
76358;BME280;65185;21.060;105.826;2022-12-05T13:12:12;102106.84;;;18.22;100.00
76358;BME280;65185;21.060;105.826;2022-12-05T13:15:21;102105.19;;;18.21;100.00
76358;BME280;65185;21.060;105.826;2022-12-05T13:17:42;102113.34;;;18.21;100.00
76358;BME280;65185;21.060;105.826;2022-12-05T13:20:17;102109.00;;;18.20;100.00
76358;BME280;65185;21.060;105.826;2022-12-05T13:22:49;102094.03;;;18.17;100.00
76358;BME280;65185;21.060;105.826;2022-12-05T13:25:20;102100.59;;;18.16;100.00
76358;BME280;65185;21.060;105.826;2022-12-05T13:27:56;102097.31;;;18.14;99.82
76358;BME280;65185;21.060;105.826;2022-12-05T13:30:24;102107.38;;;18.14;99.37
76358;BME280;65185;21.060;105.826;2022-12-05T13:33:00;102109.28;;;18.13;99.88
76358;BME280;65185;21.060;105.826;2022-12-05T13:35:38;102109.28;;;18.13;99.71
76358;BME280;65185;21.060;105.826;2022-12-05T13:38:35;102113.06;;;18.12;100.00
76358;BME280;65185;21.060;105.826;2022-12-05T13:41:41;102112.81;;;18.09;100.00
76358;BME280;65185;21.060;105.826;2022-12-05T13:47:54;102107.13;;;18.05;100.00
76358;BME280;65185;21.060;105.826;2022-12-05T14:01:43;102118.50;;;17.97;100.00
76358;BME280;65185;21.060;105.826;2022-12-05T14:04:47;102125.03;;;17.96;100.00
76358;BME280;65185;21.060;105.826;2022-12-05T14:08:46;102117.69;;;17.97;100.00
76358;BME280;65185;21.060;105.826;2022-12-05T14:15:37;102127.22;;;17.94;100.00
76358;BME280;65185;21.060;105.826;2022-12-05T14:21:13;102129.13;;;17.89;100.00
76358;BME280;65185;21.060;105.826;2022-12-05T14:30:10;102122.88;;;17.83;100.00
76358;BME280;65185;21.060;105.826;2022-12-05T14:32:44;102128.00;;;17.84;100.00
76358;BME280;65185;21.060;105.826;2022-12-05T14:35:31;102118.50;;;17.82;100.00
76358;BME280;65185;21.060;105.826;2022-12-05T14:38:07;102127.19;;;17.79;100.00
76358;BME280;65185;21.060;105.826;2022-12-05T14:40:46;102123.66;;;17.73;100.00
76358;BME280;65185;21.060;105.826;2022-12-05T14:43:33;102134.81;;;17.82;100.00
76358;BME280;65185;21.060;105.826;2022-12-05T14:46:03;102134.00;;;17.81;100.00
76358;BME280;65185;21.060;105.826;2022-12-05T14:48:42;102130.19;;;17.77;100.00
76358;BME280;65185;21.060;105.826;2022-12-05T14:54:13;102148.91;;;17.74;100.00
76358;BME280;65185;21.060;105.826;2022-12-05T14:56:49;102137.53;;;17.72;100.00
76358;BME280;65185;21.060;105.826;2022-12-05T15:01:47;102144.03;;;17.66;100.00
76358;BME280;65185;21.060;105.826;2022-12-05T15:04:25;102145.09;;;17.65;100.00
76358;BME280;65185;21.060;105.826;2022-12-05T15:07:02;102139.38;;;17.61;100.00
76358;BME280;65185;21.060;105.826;2022-12-05T15:12:05;102138.59;;;17.61;100.00
76358;BME280;65185;21.060;105.826;2022-12-05T15:14:42;102140.47;;;17.60;100.00
76358;BME280;65185;21.060;105.826;2022-12-05T15:17:14;102136.94;;;17.60;100.00
76358;BME280;65185;21.060;105.826;2022-12-05T15:19:51;102142.38;;;17.60;100.00
76358;BME280;65185;21.060;105.826;2022-12-05T15:22:22;102147.25;;;17.63;100.00
76358;BME280;65185;21.060;105.826;2022-12-05T15:25:12;102145.63;;;17.62;100.00
76358;BME280;65185;21.060;105.826;2022-12-05T15:28:17;102146.16;;;17.59;100.00
76358;BME280;65185;21.060;105.826;2022-12-05T15:30:54;102142.88;;;17.57;100.00
76358;BME280;65185;21.060;105.826;2022-12-05T15:33:23;102146.97;;;17.54;100.00
76358;BME280;65185;21.060;105.826;2022-12-05T15:35:55;102150.53;;;17.60;100.00
76358;BME280;65185;21.060;105.826;2022-12-05T15:38:29;102142.88;;;17.57;100.00
76358;BME280;65185;21.060;105.826;2022-12-05T15:41:01;102144.75;;;17.46;100.00
76358;BME280;65185;21.060;105.826;2022-12-05T15:43:33;102143.09;;;17.45;100.00
76358;BME280;65185;21.060;105.826;2022-12-05T15:46:18;102143.38;;;17.38;100.00
76358;BME280;65185;21.060;105.826;2022-12-05T15:48:50;102140.91;;;17.32;100.00
76358;BME280;65185;21.060;105.826;2022-12-05T15:51:21;102140.09;;;17.31;100.00
76358;BME280;65185;21.060;105.826;2022-12-05T15:54:10;102136.81;;;17.29;100.00
76358;BME280;65185;21.060;105.826;2022-12-05T15:56:57;102128.66;;;17.24;100.00